Baker City Municipal Airport
KBKE : now visible

Airfield :











YOU CAN JOIN US ON...

 
LOGIN :

Register | Disclaimer

   EN    FR    IT 

 









Legend :    VFR   Marginal VFR   IFR   Intensive IFR   Very Intensive IFR
Visi :
Ceiling :
>= 8 km
>= 3000ft
5 to 8 km
1000 to 3000 ft
1500m to 5 km
500 to 1000 ft
800 to 1500m
200 to 500 ft
< 800m
< 200 ft
Symbols :   Thunderstorms  Fog  Heavy snow  Heavy precipitations  Wind > 20 kt







- Airport Elevation : 3373 ft


KBKE - Baker City Municipal

CURRENT METAR :
  • 222353Z AUTO 34016G23KT 10SM CLR 26/08 A2996 RMK AO2 SLP120 T02560083 10261 20217 56008

EXPIRED METARs :
  • 222253Z AUTO 35016G23KT 10SM CLR 26/08 A2996 RMK AO2 PK WND 34026/2213 SLP122 T02610078
  • 222153Z AUTO 34016G22KT 10SM CLR 26/09 A2998 RMK AO2 SLP127 T02610089

TAF KBKE
Valid from the 23 at 00:00 until the 24 at 00:00 UTC


222326Z 2300/2324 35015G25KT P6SM SKC
FM230300 30008KT P6SM SKC
FM230600 VRB03KT P6SM SKC
No reported NOTAMs for that airfield.



MET'MAP, your aeronautical weather chart ! - Copyright ORBIFLY December 2007 - Disclaimer

ORBIFLY MET'MAP TEAM :

Programming & Development : Alexandra Zaïnal
Concept & Development : Baudouin d'Aumeries
Co-Development & Prog : Marc-Olivier Méhu
Technical & hardware support : Manuel Goepfert

Contact : metmap@orbifly.com




SOURCES & CREDITS :

   NOAA       Earth
Advisory